Emmalena, KY (41740)

8:39 AM EDT on March 27, 2017 (GMT -0400)
MD1952 | | Change Station

Elev 862 ft 37.41 °N, 83.43 °W | Updated 11 minutes ago

Clear
Clear
46.0 °F
Feels Like 46 °F
N
0.0
Wind Variable Wind from South
Gusts 0.0 mph

Today
High -- | Low -- °F
--% Chance of Precip.
Yesterday
High -- | Low -- °F
Precip. -- in
Pressure 30.01 in
Visibility 10.0 miles
Clouds Clear
Windchill 46 °F
Dew Point 45 °F
Humidity 97%
Rainfall 0.08 in
Snow Depth Not available.
7:24 AM 7:50 PM
Waning Crescent, 0% visible
METAR KJKL 271153Z AUTO 17003KT 10SM CLR 14/12 A3002 RMK AO2 SLP160 70056 T01390117 10150 20133 51008
Pressure 30.01 in
Visibility 10.0 miles
Clouds Clear
Windchill 46 °F
Dew Point 45 °F
Humidity 97%
Rainfall 0.08 in
Snow Depth Not available.
7:24 AM 7:50 PM
Waning Crescent, 0% visible
METAR KJKL 271153Z AUTO 17003KT 10SM CLR 14/12 A3002 RMK AO2 SLP160 70056 T01390117 10150 20133 51008

Get Severe Weather Alerts

Thanks for signing up!

Be on the lookout for a verification email in your inbox.

You'll start receiving the daily forecast at 8 AM.

×

10-Day Weather Forecast

Almanac

Astronomy

Mar. 27, 2017 Rise Set
Actual Time
Civil Twilight
Nautical Twilight
Astronomical Twilight
Moon
Length of Visible Light
Length of Day
Tomorrow will be .
, % of the Moon is Illuminated

Today's Extremes

State Highs State Lows

Community

WunderPhotos

Upload Photos

1,962,540 photos uploaded!

WunderBlog® & News

Nearby

Air Quality

  Air Quality AQ Index Pollutant
Not available.

Snow Depth

Station Depth Elevation

Earthquake Activity

City Distance Mag. Time & Date
Minimum magnitude displayed is 2.5.

Earthquake Activity

City Distance Mag. Time & Date
Minimum magnitude displayed is 2.5.

Coastal Water Temperatures

Place Temperature

Stations

Nearby Weather Stations

Station Location Temp. Windchill Dew Point Humidity Wind Precip. Elev Updated Type
                   

Watches & Warnings

There are currently no watches in effect.